Terminal Aerodrome Forecast
Issued by NWS

Home | Current Version | Previous Version | Text Only | Print | Product List | Glossary On
Versions: 1 2 3 4 5 6 7 8 9 10 11 12 13 14 15 16 17
000
FTUS46 KSEW 311130
TAFBFI
TAF
KBFI 311130Z 3112/0112 14006KT P6SM BKN050 OVC070
     FM311700 16006KT P6SM -RA OVC040
     FM312200 17010KT P6SM VCSH SCT030 BKN045 BKN060
     FM010400 17006KT P6SM SCT035 BKN050=

USA.gov is the U.S. government's official web portal to all federal, state and local government web resources and services.